Jamaica, VA (23079)

9:49 AM EDT on April 23, 2017 (GMT -0400)
Remlik | | Change Station

Elev 20 ft 37.68 °N, 76.62 °W | Updated 4 minutes ago

Partly Cloudy
Partly Cloudy
53.1 °F
Feels Like 53.1 °F
N
2.0
Wind Variable Wind from ENE
Gusts 6.0 mph

Today
High -- | Low -- °F
--% Chance of Precip.
Yesterday
High -- | Low -- °F
Precip. -- in
Pressure 30.12 in
Visibility 10.0 miles
Clouds Clear
Dew Point 48 °F
Humidity 84%
Rainfall 0.02 in
Snow Depth Not available.
6:20 AM 7:50 PM
Waning Crescent, 12% visible
METAR KXSA 231335Z AUTO 03006KT 10SM CLR 11/07 A3012 RMK AO2 T01130068
Pressure 30.12 in
Visibility 10.0 miles
Clouds Clear
Dew Point 48 °F
Humidity 84%
Rainfall 0.02 in
Snow Depth Not available.
6:20 AM 7:50 PM
Waning Crescent, 12% visible
METAR KXSA 231335Z AUTO 03006KT 10SM CLR 11/07 A3012 RMK AO2 T01130068

Get Severe Weather Alerts

Thanks for signing up!

Be on the lookout for a verification email in your inbox.

You'll start receiving the daily forecast at 8 AM.

×

10-Day Weather Forecast

Almanac

Astronomy

Apr. 23, 2017 Rise Set
Actual Time
Civil Twilight
Nautical Twilight
Astronomical Twilight
Moon
Length of Visible Light
Length of Day
Tomorrow will be .
, % of the Moon is Illuminated

Today's Extremes

State Highs State Lows

Community

WunderPhotos

WunderBlog® & News

Nearby

Air Quality

  Air Quality AQ Index Pollutant
Not available.

Snow Depth

Station Depth Elevation

Earthquake Activity

City Distance Mag. Time & Date
Minimum magnitude displayed is 2.5.

Coastal Water Temperatures

Place Temperature

Stations

Nearby Weather Stations

Station Location Temp. Windchill Dew Point Humidity Wind Precip. Elev Updated Type
                   

Watches & Warnings

There are currently no watches in effect.